createdAt,value
2023-10-29T00:00:49.461Z,97217.00
2023-10-29T00:03:22.168Z,97223.00
2023-10-29T00:05:54.907Z,97231.00
2023-10-29T00:08:30.197Z,97224.00
2023-10-29T00:11:01.102Z,97218.00
2023-10-29T00:13:32.922Z,97216.00
2023-10-29T00:16:05.400Z,97211.00
2023-10-29T00:18:37.666Z,97207.00
2023-10-29T00:21:09.881Z,97201.00
2023-10-29T00:23:40.045Z,97197.00
2023-10-29T00:26:10.478Z,97203.00
2023-10-29T00:28:42.697Z,97203.00
2023-10-29T00:31:14.978Z,97196.00
2023-10-29T00:33:48.320Z,97188.00
2023-10-29T00:36:18.742Z,97191.00
2023-10-29T00:38:50.708Z,97194.00
2023-10-29T00:41:23.704Z,97190.00
2023-10-29T00:44:04.928Z,97186.00
2023-10-29T00:46:36.990Z,97183.00
2023-10-29T00:49:12.689Z,97197.00
2023-10-29T00:51:42.919Z,97201.00
2023-10-29T00:54:20.664Z,97193.00
2023-10-29T00:56:55.456Z,97188.00
2023-10-29T00:59:41.850Z,97188.00
2023-10-29T01:02:18.706Z,97180.00
2023-10-29T01:04:56.679Z,97174.00
2023-10-29T01:07:27.105Z,97184.00
2023-10-29T01:09:57.740Z,97188.00
2023-10-29T01:12:48.910Z,97179.00
2023-10-29T01:15:30.021Z,97183.00
2023-10-29T01:18:02.664Z,97179.00
2023-10-29T01:20:33.954Z,97177.00
2023-10-29T01:23:07.152Z,97175.00
2023-10-29T01:25:43.262Z,97172.00
2023-10-29T01:28:19.926Z,97167.00
2023-10-29T01:30:53.743Z,97154.00
2023-10-29T01:33:31.149Z,97153.00
2023-10-29T01:36:01.313Z,97157.00
2023-10-29T01:38:38.667Z,97158.00
2023-10-29T01:41:14.601Z,97150.00
2023-10-29T01:43:51.735Z,97148.00
2023-10-29T01:46:26.772Z,97142.00
2023-10-29T01:49:07.798Z,97139.00
2023-10-29T01:51:40.692Z,97141.00
2023-10-29T01:54:12.863Z,97144.00
2023-10-29T01:56:50.618Z,97142.00
2023-10-29T01:59:23.117Z,97139.00
2023-10-29T02:01:54.990Z,97141.00
2023-10-29T02:04:28.343Z,97155.00
2023-10-29T02:06:58.507Z,97144.00
2023-10-29T02:09:31.851Z,97144.00
2023-10-29T02:12:03.917Z,97136.00
2023-10-29T02:14:50.748Z,97139.00
2023-10-29T02:17:26.064Z,97127.00
2023-10-29T02:20:23.089Z,97134.00
2023-10-29T02:23:03.812Z,97126.00
2023-10-29T02:25:31.951Z,97117.00
2023-10-29T02:28:00.095Z,97130.00
2023-10-29T02:30:28.199Z,97125.00
2023-10-29T02:32:56.529Z,97122.00
2023-10-29T02:35:25.029Z,97120.00
2023-10-29T02:37:54.519Z,97125.00
2023-10-29T02:40:22.619Z,97130.00
2023-10-29T02:42:50.961Z,97120.00
2023-10-29T02:45:19.552Z,97114.00
2023-10-29T02:47:47.769Z,97122.00
2023-10-29T02:50:16.125Z,97126.00
2023-10-29T02:52:44.251Z,97127.00
2023-10-29T02:55:13.707Z,97116.00
2023-10-29T02:57:41.813Z,97111.00
2023-10-29T03:00:10.967Z,97122.00
2023-10-29T03:02:39.128Z,97127.00
2023-10-29T03:05:08.201Z,97120.00
2023-10-29T03:07:36.303Z,97117.00
2023-10-29T03:10:05.737Z,97117.00
2023-10-29T03:12:35.294Z,97123.00
2023-10-29T03:15:03.732Z,97114.00
2023-10-29T03:17:32.000Z,97090.00
2023-10-29T03:20:00.256Z,97077.00
2023-10-29T03:22:28.411Z,97073.00
2023-10-29T03:24:56.785Z,97079.00
2023-10-29T03:27:24.933Z,97083.00
2023-10-29T03:29:54.724Z,97085.00
2023-10-29T03:32:22.930Z,97095.00
2023-10-29T03:34:51.098Z,97091.00
2023-10-29T03:37:19.517Z,97089.00
2023-10-29T03:39:47.792Z,97095.00
2023-10-29T03:42:15.970Z,97084.00
2023-10-29T03:44:44.064Z,97082.00
2023-10-29T03:47:13.823Z,97080.00
2023-10-29T03:49:44.102Z,97082.00
2023-10-29T03:52:12.221Z,97074.00
2023-10-29T03:54:40.358Z,97071.00
2023-10-29T03:57:08.669Z,97070.00
2023-10-29T03:59:36.934Z,97052.00
2023-10-29T04:02:05.523Z,97049.00
2023-10-29T04:04:35.708Z,97051.00
2023-10-29T04:07:03.811Z,97058.00
2023-10-29T04:09:31.941Z,97052.00
2023-10-29T04:12:00.506Z,97048.00
2023-10-29T04:14:28.864Z,97042.00
2023-10-29T04:16:56.993Z,97045.00
2023-10-29T04:19:25.093Z,97059.00
2023-10-29T04:21:54.573Z,97041.00
2023-10-29T04:24:22.754Z,97044.00
2023-10-29T04:26:50.856Z,97043.00
2023-10-29T04:29:19.007Z,97042.00
2023-10-29T04:31:47.104Z,97022.00
2023-10-29T04:34:15.583Z,97026.00
2023-10-29T04:36:43.744Z,97042.00
2023-10-29T04:39:13.184Z,97037.00
2023-10-29T04:41:41.286Z,97034.00
2023-10-29T04:44:09.421Z,97048.00
2023-10-29T04:46:37.531Z,97043.00
2023-10-29T04:49:06.113Z,97052.00
2023-10-29T04:51:34.270Z,97048.00
2023-10-29T04:54:02.432Z,97046.00
2023-10-29T04:56:31.954Z,97042.00
2023-10-29T04:59:00.155Z,97043.00
2023-10-29T05:01:28.278Z,97042.00
2023-10-29T05:03:56.569Z,97043.00
2023-10-29T05:06:24.790Z,97027.00
2023-10-29T05:08:52.951Z,97028.00
2023-10-29T05:11:21.102Z,97025.00
2023-10-29T05:13:50.579Z,97016.00
2023-10-29T05:16:20.988Z,97017.00
2023-10-29T05:18:49.214Z,97010.00
2023-10-29T05:21:17.344Z,97008.00
2023-10-29T05:23:45.564Z,97006.00
2023-10-29T05:26:13.635Z,97006.00
2023-10-29T05:28:42.023Z,97016.00
2023-10-29T05:31:11.509Z,97026.00
2023-10-29T05:33:39.959Z,97031.00
2023-10-29T05:36:09.939Z,97026.00
2023-10-29T05:38:38.092Z,97027.00
2023-10-29T05:41:06.204Z,97014.00
2023-10-29T05:43:35.636Z,97018.00
2023-10-29T05:46:03.958Z,97008.00
2023-10-29T05:48:33.552Z,97010.00
2023-10-29T05:51:01.738Z,97007.00
2023-10-29T05:53:29.881Z,97018.00
2023-10-29T05:55:58.169Z,97023.00
2023-10-29T05:58:26.535Z,97028.00
2023-10-29T06:00:54.756Z,97028.00
2023-10-29T06:03:23.052Z,97024.00
2023-10-29T06:05:52.892Z,97025.00
2023-10-29T06:08:22.722Z,97019.00
2023-10-29T06:10:52.029Z,97030.00
2023-10-29T06:13:20.254Z,97046.00
2023-10-29T06:15:48.415Z,97037.00
2023-10-29T06:18:17.800Z,97048.00
2023-10-29T06:20:46.062Z,97049.00
2023-10-29T06:23:15.533Z,97051.00
2023-10-29T06:25:43.652Z,97061.00
2023-10-29T06:28:11.730Z,97066.00
2023-10-29T06:30:39.861Z,97059.00
2023-10-29T06:33:08.188Z,97061.00
2023-10-29T06:35:36.463Z,97060.00
2023-10-29T06:38:04.550Z,97051.00
2023-10-29T06:40:33.999Z,97065.00
2023-10-29T06:43:02.789Z,97064.00
2023-10-29T06:45:30.898Z,97071.00
2023-10-29T06:47:59.374Z,97067.00
2023-10-29T06:50:27.515Z,97083.00
2023-10-29T06:52:55.624Z,97089.00
2023-10-29T06:55:24.340Z,97104.00
2023-10-29T06:57:53.768Z,97116.00
2023-10-29T07:00:22.099Z,97102.00
2023-10-29T07:02:50.438Z,97144.00
2023-10-29T07:05:18.816Z,97124.00
2023-10-29T07:07:46.895Z,97114.00
2023-10-29T07:10:14.985Z,97113.00
2023-10-29T07:12:43.111Z,97119.00
2023-10-29T07:15:13.497Z,97094.00
2023-10-29T07:17:41.651Z,97084.00
2023-10-29T07:20:11.053Z,97056.00
2023-10-29T07:22:39.144Z,97071.00
2023-10-29T07:25:08.711Z,97092.00
2023-10-29T07:27:36.863Z,97111.00
2023-10-29T07:30:06.194Z,97120.00
2023-10-29T07:32:36.071Z,97097.00
2023-10-29T07:35:04.566Z,97091.00
2023-10-29T07:37:33.128Z,97100.00
2023-10-29T07:40:01.232Z,97111.00
2023-10-29T07:42:29.342Z,97102.00
2023-10-29T07:44:57.434Z,97108.00
2023-10-29T07:47:25.630Z,97116.00
2023-10-29T07:49:56.474Z,97122.00
2023-10-29T07:52:24.630Z,97129.00
2023-10-29T07:54:52.907Z,97160.00
2023-10-29T07:57:22.312Z,97162.00
2023-10-29T07:59:50.509Z,97156.00
2023-10-29T08:02:18.645Z,97172.00
2023-10-29T08:04:47.030Z,97171.00
2023-10-29T08:07:16.705Z,97162.00
2023-10-29T08:09:44.769Z,97167.00
2023-10-29T08:12:12.903Z,97158.00
2023-10-29T08:14:41.014Z,97157.00
2023-10-29T08:17:09.436Z,97153.00
2023-10-29T08:19:37.601Z,97146.00
2023-10-29T08:22:05.694Z,97150.00
2023-10-29T08:24:35.166Z,97163.00
2023-10-29T08:27:03.363Z,97182.00
2023-10-29T08:29:32.742Z,97176.00
2023-10-29T08:32:00.858Z,97187.00
2023-10-29T08:34:28.929Z,97185.00
2023-10-29T08:36:57.045Z,97190.00
2023-10-29T08:39:25.150Z,97193.00
2023-10-29T08:41:54.946Z,97215.00
2023-10-29T08:44:23.066Z,97205.00
2023-10-29T08:46:51.197Z,97213.00
2023-10-29T08:49:19.371Z,97219.00
2023-10-29T08:51:47.466Z,97222.00
2023-10-29T08:54:15.579Z,97220.00
2023-10-29T08:56:43.719Z,97219.00
2023-10-29T08:59:13.478Z,97210.00
2023-10-29T09:01:41.700Z,97234.00
2023-10-29T09:04:12.127Z,97223.00
2023-10-29T09:06:40.364Z,97217.00
2023-10-29T09:09:08.493Z,97236.00
2023-10-29T09:11:37.981Z,97229.00
2023-10-29T09:14:08.607Z,97236.00
2023-10-29T09:16:38.152Z,97237.00
2023-10-29T09:19:06.288Z,97249.00
2023-10-29T09:21:35.476Z,97244.00
2023-10-29T09:24:03.590Z,97239.00
2023-10-29T09:26:32.883Z,97242.00
2023-10-29T09:29:01.405Z,97252.00
2023-10-29T09:31:29.526Z,97252.00
2023-10-29T09:33:58.981Z,97245.00
2023-10-29T09:36:27.084Z,97257.00
2023-10-29T09:38:55.236Z,97248.00
2023-10-29T09:41:23.395Z,97256.00
2023-10-29T09:43:52.374Z,97249.00
2023-10-29T09:46:19.821Z,97254.00
2023-10-29T09:48:48.014Z,97242.00
2023-10-29T09:51:18.670Z,97260.00
2023-10-29T09:53:46.816Z,97245.00
2023-10-29T09:56:14.961Z,97245.00
2023-10-29T09:58:43.477Z,97234.00
2023-10-29T10:01:11.652Z,97240.00
2023-10-29T10:03:39.966Z,97241.00
2023-10-29T10:06:08.452Z,97249.00
2023-10-29T10:08:38.055Z,97245.00
2023-10-29T10:11:06.184Z,97241.00
2023-10-29T10:13:37.669Z,97237.00
2023-10-29T10:16:10.288Z,97229.00
2023-10-29T10:18:54.807Z,97217.00
2023-10-29T10:21:24.360Z,97217.00
2023-10-29T10:23:54.703Z,97218.00
2023-10-29T10:26:31.369Z,97215.00
2023-10-29T10:29:00.341Z,97222.00
2023-10-29T10:31:28.943Z,97223.00
2023-10-29T10:34:13.852Z,97214.00
2023-10-29T10:36:43.116Z,97225.00
2023-10-29T10:39:13.064Z,97225.00
2023-10-29T10:41:43.678Z,97225.00
2023-10-29T10:44:12.867Z,97224.00
2023-10-29T10:46:43.970Z,97222.00
2023-10-29T10:49:11.081Z,97221.00
2023-10-29T10:51:39.452Z,97201.00
2023-10-29T10:54:08.013Z,97187.00
2023-10-29T10:56:38.057Z,97183.00
2023-10-29T10:59:07.029Z,97196.00
2023-10-29T11:01:36.481Z,97188.00
2023-10-29T11:04:05.716Z,97188.00
2023-10-29T11:06:33.870Z,97189.00
2023-10-29T11:09:01.992Z,97188.00
2023-10-29T11:11:32.161Z,97181.00
2023-10-29T11:14:10.922Z,97183.00
2023-10-29T11:16:52.489Z,97179.00
2023-10-29T11:19:44.522Z,97175.00
2023-10-29T11:22:22.856Z,97159.00
2023-10-29T11:25:40.277Z,97159.00
2023-10-29T11:28:08.331Z,97161.00
2023-10-29T11:30:38.012Z,97172.00
2023-10-29T11:33:19.885Z,97175.00
2023-10-29T11:35:48.444Z,97190.00
2023-10-29T11:38:40.397Z,97182.00
2023-10-29T11:41:36.140Z,97171.00
2023-10-29T11:44:23.341Z,97168.00
2023-10-29T11:47:08.017Z,97159.00
2023-10-29T11:50:14.207Z,97164.00
2023-10-29T11:52:43.785Z,97166.00
2023-10-29T11:55:13.215Z,97162.00
2023-10-29T11:57:45.660Z,97155.00
2023-10-29T12:00:15.229Z,97149.00
2023-10-29T12:02:47.285Z,97134.00
2023-10-29T12:05:16.374Z,97118.00
2023-10-29T12:07:44.611Z,97115.00
2023-10-29T12:10:12.752Z,97129.00
2023-10-29T12:12:42.504Z,97126.00
2023-10-29T12:15:16.949Z,97126.00
2023-10-29T12:17:47.357Z,97117.00
2023-10-29T12:20:23.394Z,97112.00
2023-10-29T12:22:56.144Z,97101.00
2023-10-29T12:25:24.663Z,97099.00
2023-10-29T12:27:52.840Z,97093.00
2023-10-29T12:30:37.700Z,97094.00
2023-10-29T12:33:20.481Z,97079.00
2023-10-29T12:35:49.235Z,97071.00
2023-10-29T12:38:17.544Z,97062.00
2023-10-29T12:41:20.298Z,97056.00
2023-10-29T12:43:49.254Z,97048.00
2023-10-29T12:46:18.660Z,97052.00
2023-10-29T12:49:01.133Z,97043.00
2023-10-29T12:51:31.198Z,97043.00
2023-10-29T12:54:13.383Z,97042.00
2023-10-29T12:56:52.294Z,97034.00
2023-10-29T12:59:21.251Z,97029.00
2023-10-29T13:01:51.357Z,97024.00
2023-10-29T13:04:20.967Z,97014.00
2023-10-29T13:06:49.131Z,97023.00
2023-10-29T13:09:19.408Z,97009.00
2023-10-29T13:11:48.108Z,96990.00
2023-10-29T13:14:16.221Z,96991.00
2023-10-29T13:16:44.373Z,96985.00
2023-10-29T13:19:12.614Z,96979.00
2023-10-29T13:21:42.147Z,96969.00
2023-10-29T13:24:10.431Z,96980.00
2023-10-29T13:26:39.096Z,96975.00
2023-10-29T13:29:07.866Z,96990.00
2023-10-29T13:31:35.955Z,96992.00
2023-10-29T13:34:04.056Z,96981.00
2023-10-29T13:36:32.133Z,96989.00
2023-10-29T13:39:01.645Z,96989.00
2023-10-29T13:41:29.788Z,96993.00
2023-10-29T13:43:58.750Z,96990.00
2023-10-29T13:46:26.986Z,96990.00
2023-10-29T13:48:55.146Z,96983.00
2023-10-29T13:51:23.430Z,96987.00
2023-10-29T13:53:51.646Z,96990.00
2023-10-29T13:56:23.654Z,96985.00
2023-10-29T13:58:51.802Z,96984.00
2023-10-29T14:01:20.396Z,96992.00
2023-10-29T14:03:49.786Z,97017.00
2023-10-29T14:06:18.340Z,97002.00
2023-10-29T14:08:46.736Z,97019.00
2023-10-29T14:11:15.954Z,97032.00
2023-10-29T14:13:47.111Z,97050.00
2023-10-29T14:16:16.339Z,97042.00
2023-10-29T14:18:44.647Z,97058.00
2023-10-29T14:21:13.837Z,97042.00
2023-10-29T14:23:42.490Z,97032.00
2023-10-29T14:26:10.779Z,97026.00
2023-10-29T14:28:38.990Z,97038.00
2023-10-29T14:31:08.617Z,97026.00
2023-10-29T14:33:36.847Z,97015.00
2023-10-29T14:36:05.727Z,97005.00
2023-10-29T14:38:35.635Z,96997.00
2023-10-29T14:41:03.912Z,97004.00
2023-10-29T14:43:32.161Z,96989.00
2023-10-29T14:46:04.177Z,97000.00
2023-10-29T14:48:34.462Z,96993.00
2023-10-29T14:51:05.717Z,96978.00
2023-10-29T14:53:33.993Z,96968.00
2023-10-29T14:56:02.429Z,96966.00
2023-10-29T14:58:30.707Z,96967.00
2023-10-29T15:00:59.380Z,96968.00
2023-10-29T15:03:28.643Z,96965.00
2023-10-29T15:05:59.456Z,96951.00
2023-10-29T15:08:27.852Z,96955.00
2023-10-29T15:10:56.157Z,96962.00
2023-10-29T15:13:24.347Z,96955.00
2023-10-29T15:15:52.601Z,96953.00
2023-10-29T15:18:20.992Z,96943.00
2023-10-29T15:21:00.239Z,96946.00
2023-10-29T15:23:31.063Z,96961.00
2023-10-29T15:25:59.212Z,96961.00
2023-10-29T15:28:27.341Z,96954.00
2023-10-29T15:30:55.505Z,96944.00
2023-10-29T15:33:23.756Z,96951.00
2023-10-29T15:35:51.984Z,96951.00
2023-10-29T15:38:20.484Z,96938.00
2023-10-29T15:40:50.044Z,96943.00
2023-10-29T15:43:18.212Z,96942.00
2023-10-29T15:45:46.378Z,96942.00
2023-10-29T15:48:15.152Z,96919.00
2023-10-29T15:50:49.686Z,96940.00
2023-10-29T15:53:17.791Z,96954.00
2023-10-29T15:55:45.852Z,96958.00
2023-10-29T15:58:19.384Z,96953.00
2023-10-29T16:00:48.064Z,96934.00
2023-10-29T16:03:17.425Z,96929.00
2023-10-29T16:05:45.686Z,96951.00
2023-10-29T16:08:13.750Z,96950.00
2023-10-29T16:10:41.731Z,96944.00
2023-10-29T16:13:09.720Z,96956.00
2023-10-29T16:15:39.197Z,96934.00
2023-10-29T16:18:09.122Z,96951.00
2023-10-29T16:20:38.515Z,96958.00
2023-10-29T16:23:06.540Z,96894.00
2023-10-29T16:25:35.255Z,96958.00
2023-10-29T16:28:03.499Z,96966.00
2023-10-29T16:30:31.567Z,96956.00
2023-10-29T16:33:01.986Z,96960.00
2023-10-29T16:35:30.185Z,96892.00
2023-10-29T16:37:58.203Z,96954.00
2023-10-29T16:40:26.221Z,96938.00
2023-10-29T16:42:54.268Z,96971.00
2023-10-29T16:45:22.891Z,96930.00
2023-10-29T16:47:51.090Z,96942.00
2023-10-29T16:50:20.557Z,96979.00
2023-10-29T16:52:48.588Z,96915.00
2023-10-29T16:55:17.630Z,96936.00
2023-10-29T16:57:45.713Z,96906.00
2023-10-29T17:00:14.813Z,96972.00
2023-10-29T17:02:42.987Z,96981.00
2023-10-29T17:05:11.554Z,96998.00
2023-10-29T17:07:41.046Z,96962.00
2023-10-29T17:10:10.518Z,96975.00
2023-10-29T17:12:38.518Z,97008.00
2023-10-29T17:15:09.130Z,97033.00
2023-10-29T17:17:37.279Z,97075.00
2023-10-29T17:20:06.455Z,97110.00
2023-10-29T17:22:35.555Z,97100.00
2023-10-29T17:25:05.322Z,97127.00
2023-10-29T17:27:33.710Z,97164.00
2023-10-29T17:30:02.235Z,97187.00
2023-10-29T17:32:30.379Z,97174.00
2023-10-29T17:34:58.513Z,97202.00
2023-10-29T17:37:26.568Z,97200.00
2023-10-29T17:39:54.602Z,97208.00
2023-10-29T17:42:25.082Z,97227.00
2023-10-29T17:44:53.161Z,97151.00
2023-10-29T17:47:21.256Z,97189.00
2023-10-29T17:49:49.320Z,97169.00
2023-10-29T17:52:17.297Z,97217.00
2023-10-29T17:54:45.382Z,97213.00
2023-10-29T17:57:13.741Z,97218.00
2023-10-29T17:59:43.193Z,97277.00
2023-10-29T18:02:11.215Z,97265.00
2023-10-29T18:04:42.089Z,97281.00
2023-10-29T18:07:10.144Z,97252.00
2023-10-29T18:09:38.238Z,97193.00
2023-10-29T18:12:07.422Z,97257.00
2023-10-29T18:14:35.938Z,97275.00
2023-10-29T18:17:07.394Z,97320.00
2023-10-29T18:19:35.424Z,97253.00
2023-10-29T18:22:06.634Z,97353.00
2023-10-29T18:24:34.798Z,97388.00
2023-10-29T18:27:02.876Z,97321.00
2023-10-29T18:29:30.919Z,97346.00
2023-10-29T18:31:59.036Z,97343.00
2023-10-29T18:34:28.902Z,97340.00
2023-10-29T18:36:56.928Z,97345.00
2023-10-29T18:39:25.093Z,97382.00
2023-10-29T18:41:53.180Z,97305.00
2023-10-29T18:44:23.069Z,97304.00
2023-10-29T18:46:51.799Z,97333.00
2023-10-29T18:49:19.856Z,97318.00
2023-10-29T18:51:49.254Z,97333.00
2023-10-29T18:54:18.977Z,97295.00
2023-10-29T18:56:47.154Z,97342.00
2023-10-29T18:59:15.192Z,97301.00
2023-10-29T19:01:43.334Z,97302.00
2023-10-29T19:04:11.543Z,97347.00
2023-10-29T19:06:39.760Z,97362.00
2023-10-29T19:09:10.632Z,97346.00
2023-10-29T19:11:38.875Z,97344.00
2023-10-29T19:14:07.158Z,97360.00
2023-10-29T19:16:35.575Z,97354.00
2023-10-29T19:19:04.172Z,97382.00
2023-10-29T19:21:32.475Z,97362.00
2023-10-29T19:24:00.666Z,97343.00
2023-10-29T19:26:30.189Z,97388.00
2023-10-29T19:28:58.284Z,97387.00
2023-10-29T19:31:28.082Z,97403.00
2023-10-29T19:33:56.399Z,97331.00
2023-10-29T19:36:24.504Z,97346.00
2023-10-29T19:38:52.733Z,97382.00
2023-10-29T19:41:21.365Z,97360.00
2023-10-29T19:43:50.801Z,97345.00
2023-10-29T19:46:18.827Z,97331.00
2023-10-29T19:48:46.946Z,97365.00
2023-10-29T19:51:15.112Z,97286.00
2023-10-29T19:53:43.178Z,97344.00
2023-10-29T19:56:13.282Z,97294.00
2023-10-29T19:58:41.311Z,97322.00
2023-10-29T20:01:11.396Z,97354.00
2023-10-29T20:03:40.413Z,97382.00
2023-10-29T20:06:09.392Z,97394.00
2023-10-29T20:08:37.498Z,97402.00
2023-10-29T20:11:09.672Z,97369.00
2023-10-29T20:13:38.078Z,97335.00
2023-10-29T20:16:06.923Z,97368.00
2023-10-29T20:18:36.756Z,97355.00
2023-10-29T20:21:05.530Z,97427.00
2023-10-29T20:23:33.644Z,97381.00
2023-10-29T20:26:04.402Z,97391.00
2023-10-29T20:28:32.605Z,97364.00
2023-10-29T20:31:00.671Z,97396.00
2023-10-29T20:33:28.888Z,97388.00
2023-10-29T20:35:58.387Z,97359.00
2023-10-29T20:38:26.993Z,97352.00
2023-10-29T20:40:55.067Z,97304.00
2023-10-29T20:43:23.138Z,97353.00
2023-10-29T20:45:54.231Z,97400.00
2023-10-29T20:48:22.948Z,97367.00
2023-10-29T20:50:52.404Z,97387.00
2023-10-29T20:53:22.528Z,97339.00
2023-10-29T20:55:50.554Z,97361.00
2023-10-29T20:58:18.630Z,97369.00
2023-10-29T21:00:48.766Z,97353.00
2023-10-29T21:03:17.197Z,97319.00
2023-10-29T21:05:47.024Z,97360.00
2023-10-29T21:08:15.332Z,97361.00
2023-10-29T21:10:44.809Z,97295.00
2023-10-29T21:13:12.857Z,97357.00
2023-10-29T21:15:41.553Z,97376.00
2023-10-29T21:18:10.123Z,97372.00
2023-10-29T21:20:38.235Z,97355.00
2023-10-29T21:23:06.917Z,97420.00
2023-10-29T21:25:37.666Z,97401.00
2023-10-29T21:28:07.448Z,97419.00
2023-10-29T21:30:37.977Z,97424.00
2023-10-29T21:33:06.221Z,97430.00
2023-10-29T21:35:35.667Z,97360.00
2023-10-29T21:38:03.740Z,97402.00
2023-10-29T21:40:34.177Z,97383.00
2023-10-29T21:43:02.240Z,97401.00
2023-10-29T21:45:32.062Z,97359.00
2023-10-29T21:48:00.364Z,97412.00
2023-10-29T21:50:28.562Z,97428.00
2023-10-29T21:52:56.662Z,97427.00
2023-10-29T21:55:24.775Z,97430.00
2023-10-29T21:57:52.908Z,97437.00
2023-10-29T22:00:21.141Z,97439.00
2023-10-29T22:02:50.659Z,97431.00
2023-10-29T22:05:18.841Z,97429.00
2023-10-29T22:07:46.976Z,97437.00
2023-10-29T22:10:15.522Z,97444.00
2023-10-29T22:12:44.621Z,97443.00
2023-10-29T22:15:12.837Z,97427.00
2023-10-29T22:17:41.094Z,97405.00
2023-10-29T22:20:11.691Z,97399.00
2023-10-29T22:22:39.800Z,97397.00
2023-10-29T22:25:08.755Z,97386.00
2023-10-29T22:27:36.919Z,97393.00
2023-10-29T22:30:07.901Z,97389.00
2023-10-29T22:32:36.560Z,97398.00
2023-10-29T22:35:04.888Z,97391.00
2023-10-29T22:37:34.337Z,97402.00
2023-10-29T22:40:02.442Z,97403.00
2023-10-29T22:42:30.568Z,97403.00
2023-10-29T22:44:58.721Z,97407.00
2023-10-29T22:47:26.847Z,97417.00
2023-10-29T22:49:55.101Z,97423.00
2023-10-29T22:52:23.264Z,97430.00
2023-10-29T22:54:52.740Z,97423.00
2023-10-29T22:57:20.907Z,97420.00
2023-10-29T22:59:52.504Z,97424.00
2023-10-29T23:02:20.624Z,97429.00
2023-10-29T23:04:48.749Z,97419.00
2023-10-29T23:07:16.853Z,97446.00
2023-10-29T23:09:45.058Z,97433.00
2023-10-29T23:12:14.648Z,97427.00
2023-10-29T23:14:43.101Z,97434.00
2023-10-29T23:17:11.181Z,97419.00
2023-10-29T23:19:39.366Z,97424.00
2023-10-29T23:22:07.706Z,97417.00
2023-10-29T23:24:35.886Z,97421.00
2023-10-29T23:27:05.953Z,97436.00
2023-10-29T23:29:35.687Z,97442.00
2023-10-29T23:32:04.150Z,97432.00
2023-10-29T23:34:32.316Z,97439.00
2023-10-29T23:37:00.434Z,97427.00
2023-10-29T23:39:29.707Z,97408.00
2023-10-29T23:41:57.904Z,97419.00
2023-10-29T23:44:26.009Z,97423.00
2023-10-29T23:46:55.525Z,97415.00
2023-10-29T23:49:23.755Z,97424.00
2023-10-29T23:51:51.903Z,97421.00
2023-10-29T23:54:20.293Z,97433.00
2023-10-29T23:56:48.542Z,97421.00
2023-10-29T23:59:17.273Z,97430.00
